sensor_id;sensor_type;location;lat;lon;timestamp;temperature;humidity
13164;DHT22;6647;53.688;10.746;2022-09-21T00:00:38;10.10;1.00
13164;DHT22;6647;53.688;10.746;2022-09-21T00:01:59;10.10;1.00
13164;DHT22;6647;53.688;10.746;2022-09-21T00:03:20;10.10;1.00
13164;DHT22;6647;53.688;10.746;2022-09-21T00:04:41;10.10;1.00
13164;DHT22;6647;53.688;10.746;2022-09-21T00:06:04;10.10;1.00
13164;DHT22;6647;53.688;10.746;2022-09-21T00:07:25;10.10;1.00
13164;DHT22;6647;53.688;10.746;2022-09-21T00:08:46;10.10;1.00
13164;DHT22;6647;53.688;10.746;2022-09-21T00:10:08;10.10;1.00
13164;DHT22;6647;53.688;10.746;2022-09-21T00:11:30;10.10;1.00
13164;DHT22;6647;53.688;10.746;2022-09-21T00:12:51;10.10;1.00
13164;DHT22;6647;53.688;10.746;2022-09-21T00:14:13;10.10;1.00
13164;DHT22;6647;53.688;10.746;2022-09-21T00:15:34;10.10;1.00
13164;DHT22;6647;53.688;10.746;2022-09-21T00:16:55;10.10;1.00
13164;DHT22;6647;53.688;10.746;2022-09-21T00:18:16;10.10;1.00
13164;DHT22;6647;53.688;10.746;2022-09-21T00:19:37;10.10;1.00
13164;DHT22;6647;53.688;10.746;2022-09-21T00:20:58;10.10;1.00
13164;DHT22;6647;53.688;10.746;2022-09-21T00:22:19;10.10;1.00
13164;DHT22;6647;53.688;10.746;2022-09-21T00:23:41;10.10;1.00
13164;DHT22;6647;53.688;10.746;2022-09-21T00:25:02;10.00;1.00
13164;DHT22;6647;53.688;10.746;2022-09-21T00:26:25;10.10;1.00
13164;DHT22;6647;53.688;10.746;2022-09-21T00:27:46;10.00;1.00
13164;DHT22;6647;53.688;10.746;2022-09-21T00:29:10;10.00;1.00
13164;DHT22;6647;53.688;10.746;2022-09-21T00:30:33;10.00;1.00
13164;DHT22;6647;53.688;10.746;2022-09-21T00:31:54;10.00;1.00
13164;DHT22;6647;53.688;10.746;2022-09-21T00:33:15;10.00;1.00
13164;DHT22;6647;53.688;10.746;2022-09-21T00:34:36;10.00;1.00
13164;DHT22;6647;53.688;10.746;2022-09-21T00:36:04;10.00;1.00
13164;DHT22;6647;53.688;10.746;2022-09-21T00:37:26;10.00;1.00
13164;DHT22;6647;53.688;10.746;2022-09-21T00:38:52;10.00;1.00
13164;DHT22;6647;53.688;10.746;2022-09-21T00:40:13;10.00;1.00
13164;DHT22;6647;53.688;10.746;2022-09-21T00:41:34;10.00;1.00
13164;DHT22;6647;53.688;10.746;2022-09-21T00:43:16;10.00;1.00
13164;DHT22;6647;53.688;10.746;2022-09-21T00:44:37;9.90;1.00
13164;DHT22;6647;53.688;10.746;2022-09-21T00:46:04;9.90;1.00
13164;DHT22;6647;53.688;10.746;2022-09-21T00:48:54;9.90;1.00
13164;DHT22;6647;53.688;10.746;2022-09-21T00:50:19;9.90;1.00
13164;DHT22;6647;53.688;10.746;2022-09-21T00:51:41;9.90;1.00
13164;DHT22;6647;53.688;10.746;2022-09-21T00:53:03;9.90;1.00
13164;DHT22;6647;53.688;10.746;2022-09-21T00:54:29;9.90;1.00
13164;DHT22;6647;53.688;10.746;2022-09-21T00:55:55;9.90;1.00
13164;DHT22;6647;53.688;10.746;2022-09-21T00:57:21;9.80;1.00
13164;DHT22;6647;53.688;10.746;2022-09-21T00:58:46;9.80;1.00
13164;DHT22;6647;53.688;10.746;2022-09-21T01:00:09;9.80;1.00
13164;DHT22;6647;53.688;10.746;2022-09-21T01:01:30;9.80;1.00
13164;DHT22;6647;53.688;10.746;2022-09-21T01:02:51;9.80;1.00
13164;DHT22;6647;53.688;10.746;2022-09-21T01:04:14;9.80;1.00
13164;DHT22;6647;53.688;10.746;2022-09-21T01:05:36;9.80;1.00
13164;DHT22;6647;53.688;10.746;2022-09-21T01:06:59;9.70;1.00
13164;DHT22;6647;53.688;10.746;2022-09-21T01:08:23;9.70;1.00
13164;DHT22;6647;53.688;10.746;2022-09-21T01:09:51;9.60;1.00
13164;DHT22;6647;53.688;10.746;2022-09-21T01:11:46;9.70;1.00
13164;DHT22;6647;53.688;10.746;2022-09-21T01:13:39;9.60;1.00
13164;DHT22;6647;53.688;10.746;2022-09-21T01:15:16;9.60;1.00
13164;DHT22;6647;53.688;10.746;2022-09-21T01:18:18;9.60;1.00
13164;DHT22;6647;53.688;10.746;2022-09-21T01:21:22;9.50;1.00
13164;DHT22;6647;53.688;10.746;2022-09-21T01:23:00;9.60;1.00
13164;DHT22;6647;53.688;10.746;2022-09-21T01:29:26;9.50;1.00
13164;DHT22;6647;53.688;10.746;2022-09-21T01:30:49;9.50;1.00
13164;DHT22;6647;53.688;10.746;2022-09-21T01:32:23;9.50;1.00
13164;DHT22;6647;53.688;10.746;2022-09-21T01:33:50;9.40;1.00
13164;DHT22;6647;53.688;10.746;2022-09-21T01:35:29;9.40;1.00
13164;DHT22;6647;53.688;10.746;2022-09-21T01:36:52;9.40;1.00
13164;DHT22;6647;53.688;10.746;2022-09-21T01:38:23;9.40;1.00
13164;DHT22;6647;53.688;10.746;2022-09-21T01:39:49;9.40;1.00
13164;DHT22;6647;53.688;10.746;2022-09-21T01:41:15;9.30;1.00
13164;DHT22;6647;53.688;10.746;2022-09-21T01:42:43;9.40;1.00
13164;DHT22;6647;53.688;10.746;2022-09-21T01:44:12;9.30;1.00
13164;DHT22;6647;53.688;10.746;2022-09-21T01:45:37;9.30;1.00
13164;DHT22;6647;53.688;10.746;2022-09-21T01:47:02;9.30;1.00
13164;DHT22;6647;53.688;10.746;2022-09-21T01:48:24;9.30;1.00
13164;DHT22;6647;53.688;10.746;2022-09-21T01:49:50;9.30;1.00
13164;DHT22;6647;53.688;10.746;2022-09-21T01:51:14;9.30;1.00
13164;DHT22;6647;53.688;10.746;2022-09-21T01:52:47;9.30;1.00
13164;DHT22;6647;53.688;10.746;2022-09-21T01:54:19;9.30;1.00
13164;DHT22;6647;53.688;10.746;2022-09-21T01:55:54;9.30;1.00
13164;DHT22;6647;53.688;10.746;2022-09-21T01:57:46;9.30;1.00
13164;DHT22;6647;53.688;10.746;2022-09-21T02:00:34;9.30;1.00
13164;DHT22;6647;53.688;10.746;2022-09-21T02:01:59;9.30;1.00
13164;DHT22;6647;53.688;10.746;2022-09-21T02:03:42;9.20;1.00
13164;DHT22;6647;53.688;10.746;2022-09-21T02:05:05;9.30;1.00
13164;DHT22;6647;53.688;10.746;2022-09-21T02:06:27;9.20;1.00
13164;DHT22;6647;53.688;10.746;2022-09-21T02:07:50;9.20;1.00
13164;DHT22;6647;53.688;10.746;2022-09-21T02:09:12;9.20;1.00
13164;DHT22;6647;53.688;10.746;2022-09-21T02:10:46;9.20;1.00
13164;DHT22;6647;53.688;10.746;2022-09-21T02:12:07;9.20;1.00
13164;DHT22;6647;53.688;10.746;2022-09-21T02:13:35;9.20;1.00
13164;DHT22;6647;53.688;10.746;2022-09-21T02:14:58;9.20;1.00
13164;DHT22;6647;53.688;10.746;2022-09-21T02:16:36;9.20;1.00
13164;DHT22;6647;53.688;10.746;2022-09-21T02:18:06;9.10;1.00
13164;DHT22;6647;53.688;10.746;2022-09-21T02:20:01;9.10;1.00
13164;DHT22;6647;53.688;10.746;2022-09-21T02:21:31;9.10;1.00
13164;DHT22;6647;53.688;10.746;2022-09-21T02:25:14;9.10;1.00
13164;DHT22;6647;53.688;10.746;2022-09-21T02:26:44;9.00;1.00
13164;DHT22;6647;53.688;10.746;2022-09-21T02:28:11;9.00;1.00
13164;DHT22;6647;53.688;10.746;2022-09-21T02:29:58;9.00;1.00
13164;DHT22;6647;53.688;10.746;2022-09-21T02:31:34;9.00;1.00
13164;DHT22;6647;53.688;10.746;2022-09-21T02:34:47;9.00;1.00
13164;DHT22;6647;53.688;10.746;2022-09-21T02:36:18;9.00;1.00
13164;DHT22;6647;53.688;10.746;2022-09-21T02:37:54;9.00;1.00
13164;DHT22;6647;53.688;10.746;2022-09-21T02:39:30;9.00;1.00
13164;DHT22;6647;53.688;10.746;2022-09-21T02:41:18;9.00;1.00
13164;DHT22;6647;53.688;10.746;2022-09-21T02:42:42;9.00;1.00
13164;DHT22;6647;53.688;10.746;2022-09-21T02:44:18;9.00;1.00
13164;DHT22;6647;53.688;10.746;2022-09-21T02:45:49;9.00;1.00
13164;DHT22;6647;53.688;10.746;2022-09-21T02:47:22;9.00;1.00
13164;DHT22;6647;53.688;10.746;2022-09-21T02:48:50;9.00;1.00
13164;DHT22;6647;53.688;10.746;2022-09-21T02:50:16;9.10;1.00
13164;DHT22;6647;53.688;10.746;2022-09-21T02:51:43;9.10;1.00
13164;DHT22;6647;53.688;10.746;2022-09-21T02:53:08;9.10;1.00
13164;DHT22;6647;53.688;10.746;2022-09-21T02:54:31;9.00;1.00
13164;DHT22;6647;53.688;10.746;2022-09-21T02:55:56;9.00;1.00
13164;DHT22;6647;53.688;10.746;2022-09-21T02:57:20;9.00;1.00
13164;DHT22;6647;53.688;10.746;2022-09-21T02:58:48;9.10;1.00
13164;DHT22;6647;53.688;10.746;2022-09-21T03:00:10;9.10;1.00
13164;DHT22;6647;53.688;10.746;2022-09-21T03:01:32;9.10;1.00
13164;DHT22;6647;53.688;10.746;2022-09-21T03:02:53;9.10;1.00
13164;DHT22;6647;53.688;10.746;2022-09-21T03:04:15;9.00;1.00
13164;DHT22;6647;53.688;10.746;2022-09-21T03:05:36;9.00;1.00
13164;DHT22;6647;53.688;10.746;2022-09-21T03:06:57;9.10;1.00
13164;DHT22;6647;53.688;10.746;2022-09-21T03:08:18;9.10;1.00
13164;DHT22;6647;53.688;10.746;2022-09-21T03:09:39;9.00;1.00
13164;DHT22;6647;53.688;10.746;2022-09-21T03:11:00;9.00;1.00
13164;DHT22;6647;53.688;10.746;2022-09-21T03:12:21;9.10;1.00
13164;DHT22;6647;53.688;10.746;2022-09-21T03:13:42;9.10;1.00
13164;DHT22;6647;53.688;10.746;2022-09-21T03:15:04;9.10;1.00
13164;DHT22;6647;53.688;10.746;2022-09-21T03:16:25;9.00;1.00
13164;DHT22;6647;53.688;10.746;2022-09-21T03:17:46;9.10;1.00
13164;DHT22;6647;53.688;10.746;2022-09-21T03:19:07;9.10;1.00
13164;DHT22;6647;53.688;10.746;2022-09-21T03:20:28;9.00;1.00
13164;DHT22;6647;53.688;10.746;2022-09-21T03:21:52;9.00;1.00
13164;DHT22;6647;53.688;10.746;2022-09-21T03:23:14;9.00;1.00
13164;DHT22;6647;53.688;10.746;2022-09-21T03:24:35;9.00;1.00
13164;DHT22;6647;53.688;10.746;2022-09-21T03:26:05;9.00;1.00
13164;DHT22;6647;53.688;10.746;2022-09-21T03:27:26;9.00;1.00
13164;DHT22;6647;53.688;10.746;2022-09-21T03:28:48;8.90;1.00
13164;DHT22;6647;53.688;10.746;2022-09-21T03:30:10;8.90;1.00
13164;DHT22;6647;53.688;10.746;2022-09-21T03:31:31;8.90;1.00
13164;DHT22;6647;53.688;10.746;2022-09-21T03:32:53;8.90;1.00
13164;DHT22;6647;53.688;10.746;2022-09-21T03:34:13;8.90;1.00
13164;DHT22;6647;53.688;10.746;2022-09-21T03:35:34;8.90;1.00
13164;DHT22;6647;53.688;10.746;2022-09-21T03:36:55;8.80;1.00
13164;DHT22;6647;53.688;10.746;2022-09-21T03:38:17;8.80;1.00
13164;DHT22;6647;53.688;10.746;2022-09-21T03:39:38;8.80;1.00
13164;DHT22;6647;53.688;10.746;2022-09-21T03:40:59;8.80;1.00
13164;DHT22;6647;53.688;10.746;2022-09-21T03:42:20;8.80;1.00
13164;DHT22;6647;53.688;10.746;2022-09-21T03:43:41;8.80;1.00
13164;DHT22;6647;53.688;10.746;2022-09-21T03:45:02;8.80;1.00
13164;DHT22;6647;53.688;10.746;2022-09-21T03:46:23;8.80;1.00
13164;DHT22;6647;53.688;10.746;2022-09-21T03:47:44;8.80;1.00
13164;DHT22;6647;53.688;10.746;2022-09-21T03:49:05;8.80;1.00
13164;DHT22;6647;53.688;10.746;2022-09-21T03:50:26;8.80;1.00
13164;DHT22;6647;53.688;10.746;2022-09-21T03:51:48;8.80;1.00
13164;DHT22;6647;53.688;10.746;2022-09-21T03:53:09;8.80;1.00
13164;DHT22;6647;53.688;10.746;2022-09-21T03:54:30;8.80;1.00
13164;DHT22;6647;53.688;10.746;2022-09-21T03:55:51;8.80;1.00
13164;DHT22;6647;53.688;10.746;2022-09-21T03:57:12;8.80;1.00
13164;DHT22;6647;53.688;10.746;2022-09-21T03:58:32;8.80;1.00
13164;DHT22;6647;53.688;10.746;2022-09-21T03:59:54;8.70;1.00
13164;DHT22;6647;53.688;10.746;2022-09-21T04:01:14;8.70;1.00
13164;DHT22;6647;53.688;10.746;2022-09-21T04:02:36;8.70;1.00
13164;DHT22;6647;53.688;10.746;2022-09-21T04:03:59;8.70;1.00
13164;DHT22;6647;53.688;10.746;2022-09-21T04:05:20;8.70;1.00
13164;DHT22;6647;53.688;10.746;2022-09-21T04:06:41;8.70;1.00
13164;DHT22;6647;53.688;10.746;2022-09-21T04:08:03;8.70;1.00
13164;DHT22;6647;53.688;10.746;2022-09-21T04:09:24;8.70;1.00
13164;DHT22;6647;53.688;10.746;2022-09-21T04:10:44;8.70;1.00
13164;DHT22;6647;53.688;10.746;2022-09-21T04:12:05;8.70;1.00
13164;DHT22;6647;53.688;10.746;2022-09-21T04:13:26;8.70;1.00
13164;DHT22;6647;53.688;10.746;2022-09-21T04:14:47;8.70;1.00
13164;DHT22;6647;53.688;10.746;2022-09-21T04:16:09;8.70;1.00
13164;DHT22;6647;53.688;10.746;2022-09-21T04:17:30;8.70;1.00
13164;DHT22;6647;53.688;10.746;2022-09-21T04:18:54;8.60;1.00
13164;DHT22;6647;53.688;10.746;2022-09-21T04:20:15;8.60;1.00
13164;DHT22;6647;53.688;10.746;2022-09-21T04:21:36;8.60;1.00
13164;DHT22;6647;53.688;10.746;2022-09-21T04:22:57;8.60;1.00
13164;DHT22;6647;53.688;10.746;2022-09-21T04:24:19;8.70;1.00
13164;DHT22;6647;53.688;10.746;2022-09-21T04:25:40;8.60;1.00
13164;DHT22;6647;53.688;10.746;2022-09-21T04:27:01;8.60;1.00
13164;DHT22;6647;53.688;10.746;2022-09-21T04:28:22;8.60;1.00
13164;DHT22;6647;53.688;10.746;2022-09-21T04:29:43;8.60;1.00
13164;DHT22;6647;53.688;10.746;2022-09-21T04:31:04;8.60;1.00
13164;DHT22;6647;53.688;10.746;2022-09-21T04:32:25;8.60;1.00
13164;DHT22;6647;53.688;10.746;2022-09-21T04:33:53;8.60;1.00
13164;DHT22;6647;53.688;10.746;2022-09-21T04:35:15;8.60;1.00
13164;DHT22;6647;53.688;10.746;2022-09-21T04:36:35;8.60;1.00
13164;DHT22;6647;53.688;10.746;2022-09-21T04:37:56;8.60;1.00
13164;DHT22;6647;53.688;10.746;2022-09-21T04:39:17;8.60;1.00
13164;DHT22;6647;53.688;10.746;2022-09-21T04:40:38;8.60;1.00
13164;DHT22;6647;53.688;10.746;2022-09-21T04:41:59;8.60;1.00
13164;DHT22;6647;53.688;10.746;2022-09-21T04:43:20;8.60;1.00
13164;DHT22;6647;53.688;10.746;2022-09-21T04:44:41;8.60;1.00
13164;DHT22;6647;53.688;10.746;2022-09-21T04:46:09;8.60;1.00
13164;DHT22;6647;53.688;10.746;2022-09-21T04:47:32;8.50;1.00
13164;DHT22;6647;53.688;10.746;2022-09-21T04:48:53;8.60;1.00
13164;DHT22;6647;53.688;10.746;2022-09-21T04:50:14;8.60;1.00
13164;DHT22;6647;53.688;10.746;2022-09-21T04:51:35;8.60;1.00
13164;DHT22;6647;53.688;10.746;2022-09-21T04:52:56;8.60;1.00
13164;DHT22;6647;53.688;10.746;2022-09-21T04:54:18;8.60;1.00
13164;DHT22;6647;53.688;10.746;2022-09-21T04:55:38;8.60;1.00
13164;DHT22;6647;53.688;10.746;2022-09-21T04:56:59;8.50;1.00
13164;DHT22;6647;53.688;10.746;2022-09-21T04:58:21;8.60;1.00
13164;DHT22;6647;53.688;10.746;2022-09-21T04:59:42;8.50;1.00
13164;DHT22;6647;53.688;10.746;2022-09-21T05:01:03;8.50;1.00
13164;DHT22;6647;53.688;10.746;2022-09-21T05:02:25;8.50;1.00
13164;DHT22;6647;53.688;10.746;2022-09-21T05:03:46;8.50;1.00
13164;DHT22;6647;53.688;10.746;2022-09-21T05:05:07;8.50;1.00
13164;DHT22;6647;53.688;10.746;2022-09-21T05:06:29;8.50;1.00
13164;DHT22;6647;53.688;10.746;2022-09-21T05:07:50;8.50;1.00
13164;DHT22;6647;53.688;10.746;2022-09-21T05:09:11;8.40;1.00
13164;DHT22;6647;53.688;10.746;2022-09-21T05:10:51;8.50;1.00
13164;DHT22;6647;53.688;10.746;2022-09-21T05:12:12;8.40;1.00
13164;DHT22;6647;53.688;10.746;2022-09-21T05:13:33;8.40;1.00
13164;DHT22;6647;53.688;10.746;2022-09-21T05:14:54;8.50;1.00
13164;DHT22;6647;53.688;10.746;2022-09-21T05:16:16;8.40;1.00
13164;DHT22;6647;53.688;10.746;2022-09-21T05:17:38;8.40;1.00
13164;DHT22;6647;53.688;10.746;2022-09-21T05:18:59;8.40;1.00
13164;DHT22;6647;53.688;10.746;2022-09-21T05:20:20;8.40;1.00
13164;DHT22;6647;53.688;10.746;2022-09-21T05:21:44;8.40;1.00
13164;DHT22;6647;53.688;10.746;2022-09-21T05:23:06;8.40;1.00
13164;DHT22;6647;53.688;10.746;2022-09-21T05:24:26;8.40;1.00
13164;DHT22;6647;53.688;10.746;2022-09-21T05:25:48;8.40;1.00
13164;DHT22;6647;53.688;10.746;2022-09-21T05:27:09;8.40;1.00
13164;DHT22;6647;53.688;10.746;2022-09-21T05:28:30;8.40;1.00
13164;DHT22;6647;53.688;10.746;2022-09-21T05:29:51;8.40;1.00
13164;DHT22;6647;53.688;10.746;2022-09-21T05:31:30;8.40;1.00
13164;DHT22;6647;53.688;10.746;2022-09-21T05:32:56;8.30;1.00
13164;DHT22;6647;53.688;10.746;2022-09-21T05:37:52;8.30;1.00
13164;DHT22;6647;53.688;10.746;2022-09-21T05:39:11;8.30;1.00
13164;DHT22;6647;53.688;10.746;2022-09-21T05:40:32;8.20;1.00
13164;DHT22;6647;53.688;10.746;2022-09-21T05:41:53;8.20;1.00
13164;DHT22;6647;53.688;10.746;2022-09-21T05:43:16;8.20;1.00
13164;DHT22;6647;53.688;10.746;2022-09-21T05:44:37;8.20;1.00
13164;DHT22;6647;53.688;10.746;2022-09-21T05:46:04;8.20;1.00
13164;DHT22;6647;53.688;10.746;2022-09-21T05:49:02;8.20;1.00
13164;DHT22;6647;53.688;10.746;2022-09-21T05:50:45;8.20;1.00
13164;DHT22;6647;53.688;10.746;2022-09-21T05:52:35;8.20;1.00
13164;DHT22;6647;53.688;10.746;2022-09-21T05:54:11;8.20;1.00
13164;DHT22;6647;53.688;10.746;2022-09-21T05:55:58;8.20;1.00
13164;DHT22;6647;53.688;10.746;2022-09-21T05:57:37;8.20;1.00
13164;DHT22;6647;53.688;10.746;2022-09-21T05:59:28;8.20;1.00
13164;DHT22;6647;53.688;10.746;2022-09-21T06:02:56;8.20;1.00
13164;DHT22;6647;53.688;10.746;2022-09-21T06:04:22;8.10;1.00
13164;DHT22;6647;53.688;10.746;2022-09-21T06:05:43;8.10;1.00
13164;DHT22;6647;53.688;10.746;2022-09-21T06:07:04;8.10;1.00
13164;DHT22;6647;53.688;10.746;2022-09-21T06:08:25;8.10;1.00
13164;DHT22;6647;53.688;10.746;2022-09-21T06:09:46;8.10;1.00
13164;DHT22;6647;53.688;10.746;2022-09-21T06:11:07;8.10;1.00
13164;DHT22;6647;53.688;10.746;2022-09-21T06:12:29;8.20;1.00
13164;DHT22;6647;53.688;10.746;2022-09-21T06:13:49;8.20;1.00
13164;DHT22;6647;53.688;10.746;2022-09-21T06:15:12;8.20;1.00
13164;DHT22;6647;53.688;10.746;2022-09-21T06:16:41;8.20;1.00
13164;DHT22;6647;53.688;10.746;2022-09-21T06:18:04;8.20;1.00
13164;DHT22;6647;53.688;10.746;2022-09-21T06:19:25;8.20;1.00
13164;DHT22;6647;53.688;10.746;2022-09-21T06:20:46;8.20;1.00
13164;DHT22;6647;53.688;10.746;2022-09-21T06:22:07;8.20;1.00
13164;DHT22;6647;53.688;10.746;2022-09-21T06:23:28;8.20;1.00
13164;DHT22;6647;53.688;10.746;2022-09-21T06:24:49;8.20;1.00
13164;DHT22;6647;53.688;10.746;2022-09-21T06:26:09;8.20;1.00
13164;DHT22;6647;53.688;10.746;2022-09-21T06:27:30;8.20;1.00
13164;DHT22;6647;53.688;10.746;2022-09-21T06:28:51;8.20;1.00
13164;DHT22;6647;53.688;10.746;2022-09-21T06:30:12;8.30;1.00
13164;DHT22;6647;53.688;10.746;2022-09-21T06:31:33;8.30;1.00
13164;DHT22;6647;53.688;10.746;2022-09-21T06:32:58;8.30;1.00
13164;DHT22;6647;53.688;10.746;2022-09-21T06:34:18;8.30;1.00
13164;DHT22;6647;53.688;10.746;2022-09-21T06:35:39;8.30;1.00
13164;DHT22;6647;53.688;10.746;2022-09-21T06:37:00;8.40;1.00
13164;DHT22;6647;53.688;10.746;2022-09-21T06:38:22;8.40;1.00
13164;DHT22;6647;53.688;10.746;2022-09-21T06:39:43;8.40;1.00
13164;DHT22;6647;53.688;10.746;2022-09-21T06:41:04;8.40;1.00
13164;DHT22;6647;53.688;10.746;2022-09-21T06:42:26;8.50;1.00
13164;DHT22;6647;53.688;10.746;2022-09-21T06:43:47;8.50;1.00
13164;DHT22;6647;53.688;10.746;2022-09-21T06:45:08;8.50;1.00
13164;DHT22;6647;53.688;10.746;2022-09-21T06:46:29;8.50;1.00
13164;DHT22;6647;53.688;10.746;2022-09-21T06:47:50;8.50;1.00
13164;DHT22;6647;53.688;10.746;2022-09-21T06:49:11;8.60;1.00
13164;DHT22;6647;53.688;10.746;2022-09-21T06:50:32;8.60;1.00
13164;DHT22;6647;53.688;10.746;2022-09-21T06:51:54;8.60;1.00
13164;DHT22;6647;53.688;10.746;2022-09-21T06:53:15;8.70;1.00
13164;DHT22;6647;53.688;10.746;2022-09-21T06:54:37;8.70;1.00
13164;DHT22;6647;53.688;10.746;2022-09-21T06:56:03;8.80;1.00
13164;DHT22;6647;53.688;10.746;2022-09-21T06:57:24;8.80;1.00
13164;DHT22;6647;53.688;10.746;2022-09-21T06:58:45;8.80;1.00
13164;DHT22;6647;53.688;10.746;2022-09-21T07:00:09;8.80;1.00
13164;DHT22;6647;53.688;10.746;2022-09-21T07:01:31;8.90;1.00
13164;DHT22;6647;53.688;10.746;2022-09-21T07:02:51;8.90;1.00
13164;DHT22;6647;53.688;10.746;2022-09-21T07:04:12;8.90;1.00
13164;DHT22;6647;53.688;10.746;2022-09-21T07:05:33;9.00;1.00
13164;DHT22;6647;53.688;10.746;2022-09-21T07:06:54;9.00;1.00
13164;DHT22;6647;53.688;10.746;2022-09-21T07:08:15;9.10;1.00
13164;DHT22;6647;53.688;10.746;2022-09-21T07:09:36;9.10;1.00
13164;DHT22;6647;53.688;10.746;2022-09-21T07:10:58;9.20;1.00
13164;DHT22;6647;53.688;10.746;2022-09-21T07:12:19;9.20;1.00
13164;DHT22;6647;53.688;10.746;2022-09-21T07:13:40;9.20;1.00
13164;DHT22;6647;53.688;10.746;2022-09-21T07:15:03;9.20;1.00
13164;DHT22;6647;53.688;10.746;2022-09-21T07:16:24;9.30;1.00
13164;DHT22;6647;53.688;10.746;2022-09-21T07:17:45;9.30;1.00
13164;DHT22;6647;53.688;10.746;2022-09-21T07:19:06;9.40;1.00
13164;DHT22;6647;53.688;10.746;2022-09-21T07:20:27;9.40;1.00
13164;DHT22;6647;53.688;10.746;2022-09-21T07:21:47;9.50;1.00
13164;DHT22;6647;53.688;10.746;2022-09-21T07:23:13;9.50;1.00
13164;DHT22;6647;53.688;10.746;2022-09-21T07:24:35;9.60;1.00
13164;DHT22;6647;53.688;10.746;2022-09-21T07:26:00;9.60;1.00
13164;DHT22;6647;53.688;10.746;2022-09-21T07:27:21;9.70;1.00
13164;DHT22;6647;53.688;10.746;2022-09-21T07:28:42;9.70;1.00
13164;DHT22;6647;53.688;10.746;2022-09-21T07:30:04;9.80;1.00
13164;DHT22;6647;53.688;10.746;2022-09-21T07:31:25;9.80;1.00
13164;DHT22;6647;53.688;10.746;2022-09-21T07:32:46;9.90;1.00
13164;DHT22;6647;53.688;10.746;2022-09-21T07:34:08;9.90;1.00
13164;DHT22;6647;53.688;10.746;2022-09-21T07:35:29;9.90;1.00
13164;DHT22;6647;53.688;10.746;2022-09-21T07:36:50;10.00;1.00
13164;DHT22;6647;53.688;10.746;2022-09-21T07:38:11;10.10;1.00
13164;DHT22;6647;53.688;10.746;2022-09-21T07:39:32;10.10;1.00
13164;DHT22;6647;53.688;10.746;2022-09-21T07:40:53;10.20;1.00
13164;DHT22;6647;53.688;10.746;2022-09-21T07:42:13;10.20;1.00
13164;DHT22;6647;53.688;10.746;2022-09-21T07:43:35;10.30;1.00
13164;DHT22;6647;53.688;10.746;2022-09-21T07:44:58;10.30;1.00
13164;DHT22;6647;53.688;10.746;2022-09-21T07:46:19;10.40;1.00
13164;DHT22;6647;53.688;10.746;2022-09-21T07:47:40;10.50;1.00
13164;DHT22;6647;53.688;10.746;2022-09-21T07:49:01;10.50;1.00
13164;DHT22;6647;53.688;10.746;2022-09-21T07:50:24;10.60;1.00
13164;DHT22;6647;53.688;10.746;2022-09-21T07:51:44;10.70;1.00
13164;DHT22;6647;53.688;10.746;2022-09-21T07:53:05;10.70;1.00
13164;DHT22;6647;53.688;10.746;2022-09-21T07:54:26;10.70;1.00
13164;DHT22;6647;53.688;10.746;2022-09-21T07:55:47;10.80;1.00
13164;DHT22;6647;53.688;10.746;2022-09-21T07:57:08;10.90;1.00
13164;DHT22;6647;53.688;10.746;2022-09-21T07:58:47;10.90;1.00
13164;DHT22;6647;53.688;10.746;2022-09-21T08:00:27;11.00;1.00
13164;DHT22;6647;53.688;10.746;2022-09-21T08:01:55;11.10;1.00
13164;DHT22;6647;53.688;10.746;2022-09-21T08:03:16;11.10;1.00
13164;DHT22;6647;53.688;10.746;2022-09-21T08:04:37;11.20;1.00
13164;DHT22;6647;53.688;10.746;2022-09-21T08:05:58;11.30;1.00
13164;DHT22;6647;53.688;10.746;2022-09-21T08:07:19;11.30;1.00
13164;DHT22;6647;53.688;10.746;2022-09-21T08:08:40;11.40;1.00
13164;DHT22;6647;53.688;10.746;2022-09-21T08:10:01;11.40;1.00
13164;DHT22;6647;53.688;10.746;2022-09-21T08:11:22;11.50;1.00
13164;DHT22;6647;53.688;10.746;2022-09-21T08:12:43;11.60;1.00
13164;DHT22;6647;53.688;10.746;2022-09-21T08:14:04;11.60;1.00
13164;DHT22;6647;53.688;10.746;2022-09-21T08:15:25;11.70;1.00
13164;DHT22;6647;53.688;10.746;2022-09-21T08:16:47;11.70;1.00
13164;DHT22;6647;53.688;10.746;2022-09-21T08:18:08;11.80;1.00
13164;DHT22;6647;53.688;10.746;2022-09-21T08:19:29;11.80;1.00
13164;DHT22;6647;53.688;10.746;2022-09-21T08:20:59;11.90;1.00
13164;DHT22;6647;53.688;10.746;2022-09-21T08:22:21;11.90;1.00
13164;DHT22;6647;53.688;10.746;2022-09-21T08:23:46;12.00;1.00
13164;DHT22;6647;53.688;10.746;2022-09-21T08:25:07;12.00;1.00
13164;DHT22;6647;53.688;10.746;2022-09-21T08:26:30;12.10;1.00
13164;DHT22;6647;53.688;10.746;2022-09-21T08:27:51;12.10;1.00
13164;DHT22;6647;53.688;10.746;2022-09-21T08:29:12;12.20;1.00
13164;DHT22;6647;53.688;10.746;2022-09-21T08:30:35;12.40;1.00
13164;DHT22;6647;53.688;10.746;2022-09-21T08:31:56;12.40;1.00
13164;DHT22;6647;53.688;10.746;2022-09-21T08:33:17;12.50;1.00
13164;DHT22;6647;53.688;10.746;2022-09-21T08:34:38;12.60;1.00
13164;DHT22;6647;53.688;10.746;2022-09-21T08:36:00;12.60;1.00
13164;DHT22;6647;53.688;10.746;2022-09-21T08:37:21;12.70;1.00
13164;DHT22;6647;53.688;10.746;2022-09-21T08:38:42;12.70;1.00
13164;DHT22;6647;53.688;10.746;2022-09-21T08:40:04;12.80;1.00
13164;DHT22;6647;53.688;10.746;2022-09-21T08:43:06;12.90;1.00
13164;DHT22;6647;53.688;10.746;2022-09-21T08:44:42;13.00;1.00
13164;DHT22;6647;53.688;10.746;2022-09-21T08:46:08;13.10;1.00
13164;DHT22;6647;53.688;10.746;2022-09-21T08:47:40;13.20;1.00
13164;DHT22;6647;53.688;10.746;2022-09-21T08:49:12;13.20;1.00
13164;DHT22;6647;53.688;10.746;2022-09-21T08:50:41;13.30;1.00
13164;DHT22;6647;53.688;10.746;2022-09-21T08:52:12;13.40;1.00
13164;DHT22;6647;53.688;10.746;2022-09-21T08:53:40;13.40;1.00
13164;DHT22;6647;53.688;10.746;2022-09-21T08:55:17;13.50;1.00
13164;DHT22;6647;53.688;10.746;2022-09-21T08:56:38;13.60;1.00
13164;DHT22;6647;53.688;10.746;2022-09-21T08:57:59;13.60;1.00
13164;DHT22;6647;53.688;10.746;2022-09-21T08:59:20;13.70;1.00
13164;DHT22;6647;53.688;10.746;2022-09-21T09:00:41;13.80;1.00
13164;DHT22;6647;53.688;10.746;2022-09-21T09:04:08;14.00;1.00
13164;DHT22;6647;53.688;10.746;2022-09-21T09:08:50;14.10;1.00
13164;DHT22;6647;53.688;10.746;2022-09-21T09:10:35;14.10;1.00
13164;DHT22;6647;53.688;10.746;2022-09-21T09:17:35;14.50;1.00
13164;DHT22;6647;53.688;10.746;2022-09-21T09:19:26;14.60;1.00
13164;DHT22;6647;53.688;10.746;2022-09-21T09:20:55;14.80;1.00
13164;DHT22;6647;53.688;10.746;2022-09-21T09:22:24;14.90;1.00
13164;DHT22;6647;53.688;10.746;2022-09-21T09:23:51;14.90;1.00
13164;DHT22;6647;53.688;10.746;2022-09-21T09:25:37;15.00;1.00
13164;DHT22;6647;53.688;10.746;2022-09-21T09:27:06;15.10;1.00
13164;DHT22;6647;53.688;10.746;2022-09-21T09:28:44;15.20;1.00
13164;DHT22;6647;53.688;10.746;2022-09-21T09:30:20;15.40;1.00
13164;DHT22;6647;53.688;10.746;2022-09-21T09:31:41;15.40;1.00
13164;DHT22;6647;53.688;10.746;2022-09-21T09:33:07;15.50;1.00
13164;DHT22;6647;53.688;10.746;2022-09-21T09:34:37;15.60;1.00
13164;DHT22;6647;53.688;10.746;2022-09-21T09:36:03;15.70;1.00
13164;DHT22;6647;53.688;10.746;2022-09-21T09:37:30;15.80;1.00
13164;DHT22;6647;53.688;10.746;2022-09-21T09:38:59;15.80;1.00
13164;DHT22;6647;53.688;10.746;2022-09-21T09:44:04;16.00;1.00
13164;DHT22;6647;53.688;10.746;2022-09-21T09:48:29;16.00;1.00
13164;DHT22;6647;53.688;10.746;2022-09-21T09:51:39;16.20;1.00